KHDN/HDN METAR and TAF weather

Enter ICAO airport designator
Station Type Date Time Source
KHDN METAR 2022/07/03 14:56 UTC NOAA

KHDN 031456Z 12006KT 10SM CLR 20/10 A3019 RMK AO2 SLP139 T02000100 51004


Station Type Date Time Source
KHDN Decoded METAR 2022/07/03 14:56 UTC NOAA

Hayden, Yampa Valley Airport, CO, United States (KHDN) 40-29N 107-13W
Jul 03, 2022 - 10:56 AM EDT / 2022.07.03 1456 UTC
Wind: from the ESE (120 degrees) at 7 MPH (6 KT):0
Visibility: 10 mile(s):0
Sky conditions: clear
Temperature: 68.0 F (20.0 C)
Dew Point: 50.0 F (10.0 C)
Relative Humidity: 52%
Pressure (altimeter): 30.19 in. Hg (1022 hPa)
Pressure tendency: 0.01 inches (0.4 hPa) higher than three hours ago
ob: KHDN 031456Z 12006KT 10SM CLR 20/10 A3019 RMK AO2 SLP139 T02000100 51004
cycle: 15

Station Type Date Time Source
KHDN TAF 2022/07/03 12:22 UTC NOAA

TAF KHDN 031120Z 0312/0412 15006KT P6SM SCT090
FM031800 24012G20KT P6SM VCTS SCT080CB BKN100
FM032200 20012G20KT P6SM VCTS BKN080CB
FM040200 13008KT P6SM FEW080

Example: see airport list